createdAt,value
2018-05-18T00:02:22.655Z,18.69
2018-05-18T00:04:50.710Z,18.79
2018-05-18T00:07:18.686Z,17.66
2018-05-18T00:09:46.702Z,17.44
2018-05-18T00:12:14.716Z,17.48
2018-05-18T00:14:42.654Z,17.63
2018-05-18T00:17:10.622Z,18.15
2018-05-18T00:19:38.709Z,18.25
2018-05-18T00:22:06.712Z,17.78
2018-05-18T00:24:34.717Z,17.76
2018-05-18T00:27:02.713Z,17.17
2018-05-18T00:29:31.072Z,17.26
2018-05-18T00:31:59.057Z,17.34
2018-05-18T00:34:27.043Z,16.98
2018-05-18T00:36:54.996Z,17.20
2018-05-18T00:39:22.979Z,17.81
2018-05-18T00:41:50.997Z,17.68
2018-05-18T00:44:18.939Z,17.89
2018-05-18T00:46:46.904Z,17.93
2018-05-18T00:49:14.923Z,18.17
2018-05-18T00:51:42.905Z,18.22
2018-05-18T00:54:10.939Z,18.24
2018-05-18T00:56:38.987Z,18.15
2018-05-18T00:59:07.025Z,18.18
2018-05-18T01:01:35.080Z,18.18
2018-05-18T01:04:03.077Z,18.14
2018-05-18T01:06:31.088Z,18.09
2018-05-18T01:08:59.101Z,18.04
2018-05-18T01:11:27.118Z,17.94
2018-05-18T01:13:55.116Z,17.91
2018-05-18T01:16:23.154Z,17.94
2018-05-18T01:18:51.175Z,17.84
2018-05-18T01:21:19.388Z,17.63
2018-05-18T01:23:47.478Z,17.38
2018-05-18T01:26:15.483Z,17.76
2018-05-18T01:28:43.476Z,17.97
2018-05-18T01:31:11.872Z,18.09
2018-05-18T01:33:39.874Z,17.44
2018-05-18T01:36:07.894Z,16.91
2018-05-18T01:38:35.898Z,17.05
2018-05-18T01:41:03.910Z,17.18
2018-05-18T01:43:31.923Z,16.97
2018-05-18T01:45:59.937Z,16.80
2018-05-18T01:48:27.960Z,17.34
2018-05-18T01:50:55.999Z,17.37
2018-05-18T01:53:23.956Z,17.70
2018-05-18T01:55:51.965Z,17.71
2018-05-18T01:58:19.994Z,17.72
2018-05-18T02:00:47.955Z,17.81
2018-05-18T02:03:15.999Z,17.77
2018-05-18T02:05:44.018Z,17.79
2018-05-18T02:08:12.206Z,17.81
2018-05-18T02:10:40.226Z,17.78
2018-05-18T02:13:08.207Z,17.80
2018-05-18T02:15:36.231Z,17.74
2018-05-18T02:18:04.231Z,17.71
2018-05-18T02:20:32.170Z,17.28
2018-05-18T02:23:00.155Z,17.29
2018-05-18T02:25:28.182Z,17.52
2018-05-18T02:27:56.296Z,17.62
2018-05-18T02:30:24.300Z,17.61
2018-05-18T02:32:52.824Z,17.59
2018-05-18T02:35:20.800Z,17.58
2018-05-18T02:37:48.778Z,17.44
2018-05-18T02:40:16.808Z,17.17
2018-05-18T02:42:44.833Z,17.11
2018-05-18T02:45:12.794Z,17.14
2018-05-18T02:47:40.764Z,17.33
2018-05-18T02:50:08.817Z,17.25
2018-05-18T02:52:36.846Z,17.17
2018-05-18T02:55:04.901Z,17.29
2018-05-18T02:57:33.218Z,17.43
2018-05-18T03:00:01.171Z,17.43
2018-05-18T03:02:29.210Z,17.57
2018-05-18T03:04:57.171Z,17.38
2018-05-18T03:07:25.197Z,17.18
2018-05-18T03:09:53.232Z,16.87
2018-05-18T03:12:21.234Z,16.61
2018-05-18T03:14:49.213Z,15.84
2018-05-18T03:17:17.149Z,15.53
2018-05-18T03:19:45.094Z,15.75
2018-05-18T03:22:13.093Z,15.93
2018-05-18T03:24:41.013Z,15.97
2018-05-18T03:27:09.016Z,16.61
2018-05-18T03:29:37.058Z,16.27
2018-05-18T03:32:05.417Z,16.43
2018-05-18T03:34:34.015Z,15.41
2018-05-18T03:37:02.599Z,14.71
2018-05-18T03:39:31.249Z,15.04
2018-05-18T03:41:59.680Z,15.35
2018-05-18T03:44:28.140Z,15.93
2018-05-18T03:46:56.757Z,16.40
2018-05-18T03:49:25.093Z,16.58
2018-05-18T03:51:53.790Z,16.39
2018-05-18T03:54:21.972Z,16.54
2018-05-18T03:56:50.354Z,16.36
2018-05-18T03:59:18.960Z,16.47
2018-05-18T04:01:59.551Z,16.67
2018-05-18T04:04:40.138Z,15.87
2018-05-18T04:07:20.659Z,15.60
2018-05-18T04:09:50.427Z,16.12
2018-05-18T04:12:19.110Z,16.15
2018-05-18T04:14:47.397Z,15.96
2018-05-18T04:17:15.504Z,15.96
2018-05-18T04:19:43.532Z,16.14
2018-05-18T04:22:11.521Z,15.94
2018-05-18T04:24:39.632Z,16.31
2018-05-18T04:27:07.958Z,16.53
2018-05-18T04:29:36.528Z,16.65
2018-05-18T04:32:04.720Z,16.73
2018-05-18T04:34:33.071Z,17.08
2018-05-18T04:37:02.165Z,17.62
2018-05-18T04:39:30.602Z,17.73
2018-05-18T04:41:58.946Z,17.85
2018-05-18T04:44:27.202Z,18.07
2018-05-18T04:46:55.697Z,18.62
2018-05-18T04:49:24.153Z,18.46
2018-05-18T04:51:52.549Z,18.03
2018-05-18T04:54:21.124Z,18.43
2018-05-18T04:56:49.568Z,18.49
2018-05-18T04:59:17.969Z,18.94
2018-05-18T05:01:46.330Z,19.12
2018-05-18T05:04:14.738Z,18.79
2018-05-18T05:06:42.935Z,18.74
2018-05-18T05:09:11.391Z,17.61
2018-05-18T05:11:39.669Z,18.26
2018-05-18T05:14:08.146Z,18.78
2018-05-18T05:16:36.592Z,18.40
2018-05-18T05:19:04.913Z,17.95
2018-05-18T05:21:33.377Z,17.71
2018-05-18T05:24:01.749Z,16.98
2018-05-18T05:26:30.039Z,17.14
2018-05-18T05:28:58.444Z,17.75
2018-05-18T05:31:26.904Z,17.46
2018-05-18T05:33:55.326Z,17.35
2018-05-18T05:36:23.674Z,17.09
2018-05-18T05:38:52.181Z,18.16
2018-05-18T05:41:20.735Z,18.67
2018-05-18T05:43:48.681Z,18.86
2018-05-18T05:46:17.295Z,19.02
2018-05-18T05:48:45.851Z,19.00
2018-05-18T05:51:14.339Z,19.03
2018-05-18T05:53:42.548Z,19.50
2018-05-18T05:56:10.620Z,20.18
2018-05-18T05:58:38.951Z,20.29
2018-05-18T06:01:07.527Z,20.85
2018-05-18T06:03:35.602Z,20.44
2018-05-18T06:06:03.649Z,20.44
2018-05-18T06:08:31.710Z,20.71
2018-05-18T06:11:00.043Z,20.81
2018-05-18T06:13:28.502Z,20.87
2018-05-18T06:15:57.081Z,20.84
2018-05-18T06:18:25.323Z,20.61
2018-05-18T06:20:53.993Z,21.31
2018-05-18T06:23:22.032Z,22.12
2018-05-18T06:25:51.354Z,21.98
2018-05-18T06:28:19.406Z,21.42
2018-05-18T06:30:47.448Z,21.60
2018-05-18T06:33:15.467Z,21.39
2018-05-18T06:35:43.598Z,21.87
2018-05-18T06:38:11.656Z,21.34
2018-05-18T06:40:40.093Z,22.20
2018-05-18T06:43:08.098Z,23.05
2018-05-18T06:45:36.148Z,22.50
2018-05-18T06:48:04.237Z,23.23
2018-05-18T06:50:32.296Z,22.96
2018-05-18T06:53:00.292Z,23.85
2018-05-18T06:55:28.331Z,24.57
2018-05-18T06:57:56.350Z,24.30
2018-05-18T07:00:24.324Z,24.70
2018-05-18T07:02:52.360Z,24.34
2018-05-18T07:05:20.404Z,24.75
2018-05-18T07:07:48.371Z,24.46
2018-05-18T07:10:16.316Z,25.26
2018-05-18T07:12:44.318Z,24.77
2018-05-18T07:15:12.380Z,24.53
2018-05-18T07:17:40.555Z,25.57
2018-05-18T07:20:08.527Z,24.86
2018-05-18T07:22:36.567Z,25.06
2018-05-18T07:25:04.664Z,25.39
2018-05-18T07:27:32.772Z,25.48
2018-05-18T07:30:00.753Z,26.69
2018-05-18T07:32:28.909Z,26.77
2018-05-18T07:34:56.910Z,26.70
2018-05-18T07:37:24.952Z,26.11
2018-05-18T07:39:53.034Z,25.52
2018-05-18T07:42:21.230Z,26.75
2018-05-18T07:44:49.170Z,25.90
2018-05-18T07:47:17.141Z,26.94
2018-05-18T07:49:45.164Z,26.98
2018-05-18T07:52:13.347Z,27.61
2018-05-18T07:54:41.407Z,26.75
2018-05-18T07:57:09.445Z,28.27
2018-05-18T07:59:37.474Z,27.58
2018-05-18T08:02:05.549Z,27.36
2018-05-18T08:04:33.504Z,27.87
2018-05-18T08:07:01.563Z,28.28
2018-05-18T08:09:29.611Z,27.74
2018-05-18T08:11:57.632Z,27.82
2018-05-18T08:14:25.678Z,28.95
2018-05-18T08:16:53.704Z,29.65
2018-05-18T08:19:21.792Z,29.98
2018-05-18T08:21:49.749Z,30.14
2018-05-18T08:24:17.851Z,29.94
2018-05-18T08:29:45.987Z,29.45
2018-05-18T08:32:14.038Z,29.17
2018-05-18T08:34:42.015Z,28.67
2018-05-18T08:37:10.044Z,27.80
2018-05-18T08:39:38.035Z,26.72
2018-05-18T08:42:06.050Z,27.21
2018-05-18T08:44:34.540Z,27.03
2018-05-18T08:47:02.640Z,26.18
2018-05-18T08:49:30.725Z,26.89
2018-05-18T08:51:58.721Z,28.00
2018-05-18T08:54:26.744Z,28.67
2018-05-18T08:56:54.876Z,29.76
2018-05-18T08:59:22.846Z,30.60
2018-05-18T09:01:50.891Z,31.18
2018-05-18T09:04:18.917Z,31.43
2018-05-18T09:06:46.938Z,29.88
2018-05-18T09:09:14.878Z,28.71
2018-05-18T09:11:42.906Z,29.78
2018-05-18T09:14:10.954Z,30.52
2018-05-18T09:16:39.016Z,30.96
2018-05-18T09:19:07.005Z,30.09
2018-05-18T09:21:35.061Z,30.71
2018-05-18T09:24:03.155Z,30.37
2018-05-18T09:26:31.250Z,29.82
2018-05-18T09:28:59.360Z,29.92
2018-05-18T09:31:27.388Z,30.86
2018-05-18T09:33:55.566Z,31.74
2018-05-18T09:36:23.566Z,32.39
2018-05-18T09:38:51.613Z,31.29
2018-05-18T09:41:19.624Z,31.20
2018-05-18T09:43:47.652Z,30.46
2018-05-18T09:46:15.939Z,29.93
2018-05-18T09:48:44.037Z,29.41
2018-05-18T09:51:12.033Z,29.06
2018-05-18T09:53:40.089Z,28.79
2018-05-18T09:56:08.142Z,28.31
2018-05-18T09:58:36.161Z,28.33
2018-05-18T10:01:04.171Z,27.84
2018-05-18T10:03:32.221Z,29.37
2018-05-18T10:06:00.251Z,30.69
2018-05-18T10:08:28.382Z,31.66
2018-05-18T10:10:56.430Z,32.93
2018-05-18T10:13:24.501Z,33.34
2018-05-18T10:15:52.571Z,31.55
2018-05-18T10:18:20.581Z,31.64
2018-05-18T10:20:48.762Z,32.93
2018-05-18T10:23:16.887Z,32.48
2018-05-18T10:25:44.978Z,32.28
2018-05-18T10:28:13.052Z,31.62
2018-05-18T10:30:41.016Z,32.93
2018-05-18T10:33:09.071Z,33.48
2018-05-18T10:35:37.119Z,33.77
2018-05-18T10:38:05.178Z,34.30
2018-05-18T10:40:33.232Z,33.75
2018-05-18T10:43:01.253Z,33.94
2018-05-18T10:45:29.220Z,33.88
2018-05-18T10:47:57.553Z,33.60
2018-05-18T10:50:25.703Z,34.76
2018-05-18T10:52:53.811Z,34.72
2018-05-18T10:55:22.280Z,35.02
2018-05-18T10:57:50.399Z,34.62
2018-05-18T11:00:18.542Z,34.71
2018-05-18T11:02:46.787Z,34.98
2018-05-18T11:05:14.931Z,36.28
2018-05-18T11:07:43.030Z,34.96
2018-05-18T11:10:11.301Z,35.12
2018-05-18T11:12:39.420Z,35.55
2018-05-18T11:15:07.536Z,34.71
2018-05-18T11:17:35.815Z,35.08
2018-05-18T11:20:04.015Z,34.23
2018-05-18T11:22:32.065Z,35.00
2018-05-18T11:25:00.649Z,35.10
2018-05-18T11:27:28.762Z,34.86
2018-05-18T11:29:56.841Z,33.13
2018-05-18T11:32:24.975Z,32.86
2018-05-18T11:34:53.089Z,33.07
2018-05-18T11:37:21.419Z,32.39
2018-05-18T11:39:49.546Z,32.99
2018-05-18T11:42:17.708Z,32.49
2018-05-18T11:44:46.193Z,32.97
2018-05-18T11:47:14.219Z,32.57
2018-05-18T11:49:42.155Z,32.92
2018-05-18T11:52:10.135Z,33.42
2018-05-18T11:54:38.235Z,33.11
2018-05-18T11:57:06.192Z,32.61
2018-05-18T11:59:34.249Z,32.52
2018-05-18T12:02:02.201Z,30.91
2018-05-18T12:04:30.235Z,31.47
2018-05-18T12:06:58.225Z,31.37
2018-05-18T12:09:26.221Z,32.32
2018-05-18T12:11:54.293Z,31.38
2018-05-18T12:14:22.383Z,31.40
2018-05-18T12:16:50.366Z,31.91
2018-05-18T12:19:18.398Z,32.18
2018-05-18T12:21:46.450Z,31.46
2018-05-18T12:24:14.481Z,30.59
2018-05-18T12:26:42.783Z,30.83
2018-05-18T12:29:10.580Z,29.24
2018-05-18T12:31:38.607Z,30.11
2018-05-18T12:34:06.762Z,29.16
2018-05-18T12:36:34.772Z,29.42
2018-05-18T12:39:02.986Z,30.71
2018-05-18T12:41:34.328Z,30.30
2018-05-18T12:44:02.398Z,29.91
2018-05-18T12:46:30.427Z,29.42
2018-05-18T12:48:58.868Z,29.49
2018-05-18T12:51:26.949Z,29.66
2018-05-18T12:53:55.011Z,29.77
2018-05-18T12:56:23.041Z,29.19
2018-05-18T12:58:51.050Z,28.88
2018-05-18T13:01:18.986Z,28.99
2018-05-18T13:03:46.988Z,29.43
2018-05-18T13:06:14.986Z,29.56
2018-05-18T13:08:42.972Z,29.29
2018-05-18T13:11:10.981Z,28.23
2018-05-18T13:13:38.999Z,28.63
2018-05-18T13:16:07.001Z,28.02
2018-05-18T13:18:34.998Z,28.23
2018-05-18T13:21:03.034Z,28.15
2018-05-18T13:23:31.068Z,28.32
2018-05-18T13:25:59.069Z,27.70
2018-05-18T13:28:27.055Z,27.78
2018-05-18T13:30:55.147Z,27.43
2018-05-18T13:33:23.146Z,27.10
2018-05-18T13:35:51.195Z,27.34
2018-05-18T13:38:19.229Z,28.06
2018-05-18T13:40:48.235Z,27.88
2018-05-18T13:43:16.247Z,27.43
2018-05-18T13:45:44.387Z,27.17
2018-05-18T13:48:12.390Z,27.64
2018-05-18T13:50:40.737Z,27.60
2018-05-18T13:53:08.690Z,27.70
2018-05-18T13:55:36.753Z,27.33
2018-05-18T13:58:04.778Z,27.18
2018-05-18T14:00:32.762Z,27.58
2018-05-18T14:03:00.734Z,27.66
2018-05-18T14:05:28.780Z,27.60
2018-05-18T14:07:56.777Z,27.70
2018-05-18T14:10:24.770Z,27.65
2018-05-18T14:12:52.779Z,27.41
2018-05-18T14:15:20.851Z,27.14
2018-05-18T14:17:48.822Z,27.43
2018-05-18T14:20:16.787Z,27.32
2018-05-18T14:22:44.916Z,26.69
2018-05-18T14:25:12.944Z,26.95
2018-05-18T14:27:41.058Z,27.20
2018-05-18T14:30:09.082Z,26.72
2018-05-18T14:32:37.105Z,26.59
2018-05-18T14:35:05.093Z,26.26
2018-05-18T14:37:33.074Z,26.55
2018-05-18T14:40:01.107Z,26.05
2018-05-18T14:42:29.107Z,26.19
2018-05-18T14:44:57.128Z,25.99
2018-05-18T14:47:25.138Z,26.02
2018-05-18T14:49:53.056Z,25.66
2018-05-18T14:52:21.604Z,26.05
2018-05-18T14:54:49.650Z,25.95
2018-05-18T14:57:17.637Z,25.92
2018-05-18T14:59:45.658Z,25.87
2018-05-18T15:02:13.672Z,25.88
2018-05-18T15:04:41.655Z,26.06
2018-05-18T15:07:09.650Z,25.90
2018-05-18T15:09:38.287Z,25.66
2018-05-18T15:12:06.354Z,25.46
2018-05-18T15:14:34.374Z,25.63
2018-05-18T15:17:02.460Z,25.63
2018-05-18T15:19:30.455Z,25.44
2018-05-18T15:21:58.429Z,25.13
2018-05-18T15:24:26.510Z,24.91
2018-05-18T15:26:54.527Z,24.26
2018-05-18T15:29:22.521Z,24.03
2018-05-18T15:31:50.523Z,23.76
2018-05-18T15:34:18.601Z,23.43
2018-05-18T15:36:46.645Z,22.79
2018-05-18T15:39:14.663Z,22.63
2018-05-18T15:41:42.659Z,22.76
2018-05-18T15:44:10.651Z,22.47
2018-05-18T15:46:38.637Z,22.34
2018-05-18T15:49:06.605Z,22.50
2018-05-18T15:51:34.592Z,22.40
2018-05-18T15:54:02.769Z,22.62
2018-05-18T15:56:30.834Z,22.79
2018-05-18T15:58:58.836Z,23.19
2018-05-18T16:01:26.882Z,22.95
2018-05-18T16:03:54.881Z,23.21
2018-05-18T16:06:22.888Z,23.38
2018-05-18T16:08:50.928Z,23.56
2018-05-18T16:11:18.974Z,23.08
2018-05-18T16:13:46.967Z,23.05
2018-05-18T16:16:14.914Z,23.18
2018-05-18T16:18:42.881Z,22.33
2018-05-18T16:21:10.854Z,22.12
2018-05-18T16:26:37.276Z,21.55
2018-05-18T16:29:05.320Z,21.40
2018-05-18T16:31:33.345Z,21.10
2018-05-18T16:34:01.366Z,21.29
2018-05-18T16:36:29.442Z,21.05
2018-05-18T16:38:57.544Z,21.03
2018-05-18T16:41:25.516Z,20.44
2018-05-18T16:43:53.537Z,20.99
2018-05-18T16:46:21.547Z,21.35
2018-05-18T16:48:49.524Z,20.84
2018-05-18T16:51:17.511Z,20.68
2018-05-18T16:53:45.500Z,20.96
2018-05-18T16:56:13.854Z,20.98
2018-05-18T16:58:41.897Z,20.83
2018-05-18T17:01:09.904Z,20.86
2018-05-18T17:03:37.943Z,20.91
2018-05-18T17:06:05.962Z,21.00
2018-05-18T17:08:34.022Z,20.73
2018-05-18T17:11:02.019Z,20.78
2018-05-18T17:13:30.104Z,20.23
2018-05-18T17:15:58.124Z,20.62
2018-05-18T17:18:26.139Z,21.20
2018-05-18T17:20:54.134Z,21.27
2018-05-18T17:23:22.174Z,21.47
2018-05-18T17:25:50.252Z,20.70
2018-05-18T17:28:18.282Z,20.43
2018-05-18T17:30:46.283Z,20.69
2018-05-18T17:33:14.270Z,20.61
2018-05-18T17:35:42.311Z,20.80
2018-05-18T17:38:10.335Z,20.41
2018-05-18T17:40:38.268Z,20.16
2018-05-18T17:43:06.297Z,20.59
2018-05-18T17:45:34.328Z,21.02
2018-05-18T17:48:02.379Z,21.21
2018-05-18T17:50:30.350Z,21.45
2018-05-18T17:52:58.385Z,21.50
2018-05-18T17:55:26.419Z,21.40
2018-05-18T17:57:55.128Z,21.53
2018-05-18T18:00:23.187Z,21.33
2018-05-18T18:02:51.267Z,21.25
2018-05-18T18:05:19.267Z,20.94
2018-05-18T18:07:47.348Z,20.28
2018-05-18T18:10:15.433Z,20.45
2018-05-18T18:12:43.458Z,21.02
2018-05-18T18:15:11.364Z,21.13
2018-05-18T18:17:39.412Z,21.28
2018-05-18T18:20:07.437Z,21.38
2018-05-18T18:22:35.463Z,20.93
2018-05-18T18:25:03.542Z,20.71
2018-05-18T18:27:31.535Z,20.61
2018-05-18T18:29:59.548Z,20.75
2018-05-18T18:32:27.532Z,20.74
2018-05-18T18:34:55.539Z,20.56
2018-05-18T18:37:23.520Z,19.93
2018-05-18T18:39:51.463Z,19.95
2018-05-18T18:42:19.478Z,20.04
2018-05-18T18:44:47.494Z,19.81
2018-05-18T18:47:15.363Z,20.34
2018-05-18T18:49:43.360Z,20.23
2018-05-18T18:52:11.500Z,20.64
2018-05-18T18:54:39.482Z,19.90
2018-05-18T18:57:07.437Z,20.02
2018-05-18T18:59:35.569Z,20.35
2018-05-18T19:02:03.559Z,20.62
2018-05-18T19:04:31.502Z,20.53
